Time;durP1;ratioP1;P1;durP2;ratioP2;P2;SDS_P1;SDS_P2;PMS_P1;PMS_P2;Temp;Humidity;BMP_temperature;BMP_pressure;BME280_temperature;BME280_humidity;BME280_pressure;Samples;Min_cycle;Max_cycle;Signal;HPM_P1;HPM_P2
2021/01/16 00:02:02;;;;;;;16.15;8.40;;;;;;;;;;5028970;28;20072;-71
2021/01/16 00:04:28;;;;;;;14.02;8.13;;;;;;;;;;5029783;28;20504;-70
2021/01/16 00:06:54;;;;;;;15.35;7.60;;;;;;;;;;5029148;28;20571;-71
2021/01/16 00:09:21;;;;;;;10.95;6.45;;;;;;;;;;5028576;28;20021;-70
2021/01/16 00:11:50;;;;;;;11.70;6.25;;;;;;;;;;5029160;28;20033;-71
2021/01/16 00:14:16;;;;;;;12.02;6.40;;;;;;;;;;5025599;28;20021;-70
2021/01/16 00:16:42;;;;;;;17.42;9.07;;;;;;;;;;5029655;28;20052;-71
2021/01/16 00:19:09;;;;;;;11.45;6.70;;;;;;;;;;5035877;28;20025;-71
2021/01/16 00:21:35;;;;;;;12.52;7.35;;;;;;;;;;5025841;28;20033;-71
2021/01/16 00:24:01;;;;;;;18.00;8.32;;;;;;;;;;5027861;28;20035;-71
2021/01/16 00:26:27;;;;;;;13.63;7.90;;;;;;;;;;5031013;28;20367;-71
2021/01/16 00:28:53;;;;;;;14.15;7.60;;;;;;;;;;5030363;28;20022;-72
2021/01/16 00:31:19;;;;;;;15.52;8.00;;;;;;;;;;5029016;28;20512;-71
2021/01/16 00:33:45;;;;;;;16.40;8.38;;;;;;;;;;5024542;28;20029;-71
2021/01/16 00:36:11;;;;;;;18.98;9.77;;;;;;;;;;5010958;28;20095;-71
2021/01/16 00:38:38;;;;;;;22.77;10.18;;;;;;;;;;5012185;28;20040;-71
2021/01/16 00:41:04;;;;;;;22.58;10.18;;;;;;;;;;5018060;28;20038;-70
2021/01/16 00:43:30;;;;;;;18.67;10.57;;;;;;;;;;5017669;28;20022;-71
2021/01/16 00:45:57;;;;;;;23.10;10.95;;;;;;;;;;5029465;28;20014;-71
2021/01/16 00:48:23;;;;;;;21.35;10.80;;;;;;;;;;5030173;28;20055;-71
2021/01/16 00:50:50;;;;;;;19.95;9.77;;;;;;;;;;5022948;28;20032;-71
2021/01/16 00:53:17;;;;;;;21.55;10.55;;;;;;;;;;5024092;28;20029;-71
2021/01/16 00:55:43;;;;;;;24.75;10.88;;;;;;;;;;5028562;28;20064;-71
2021/01/16 00:58:10;;;;;;;23.23;11.15;;;;;;;;;;5028045;28;20103;-71
2021/01/16 01:00:37;;;;;;;20.92;11.20;;;;;;;;;;5030004;28;20018;-71
2021/01/16 01:03:03;;;;;;;23.42;11.88;;;;;;;;;;5024384;28;20030;-71
2021/01/16 01:05:29;;;;;;;24.52;11.55;;;;;;;;;;5029184;28;20569;-71
2021/01/16 01:07:55;;;;;;;22.63;10.20;;;;;;;;;;5028497;28;20048;-71
2021/01/16 01:10:25;;;;;;;21.23;11.40;;;;;;;;;;5027780;28;20497;-70
2021/01/16 01:12:51;;;;;;;19.73;10.52;;;;;;;;;;5026010;28;20108;-71
2021/01/16 01:15:18;;;;;;;24.48;11.05;;;;;;;;;;5029812;28;20519;-70
2021/01/16 01:17:44;;;;;;;19.42;9.60;;;;;;;;;;5029066;28;20017;-70
2021/01/16 01:20:10;;;;;;;17.15;9.68;;;;;;;;;;5030146;28;20033;-70
2021/01/16 01:22:37;;;;;;;21.48;9.48;;;;;;;;;;5026544;28;20026;-70
2021/01/16 01:25:04;;;;;;;15.82;8.82;;;;;;;;;;5036189;28;20022;-70
2021/01/16 01:27:30;;;;;;;20.80;8.65;;;;;;;;;;5037283;28;20013;-70
2021/01/16 01:29:56;;;;;;;16.58;7.53;;;;;;;;;;5036140;28;20228;-70
2021/01/16 01:32:22;;;;;;;18.38;8.05;;;;;;;;;;5029855;28;20468;-70
2021/01/16 01:34:48;;;;;;;16.35;8.07;;;;;;;;;;5033703;28;20521;-70
2021/01/16 01:37:14;;;;;;;14.50;7.95;;;;;;;;;;5036105;28;20038;-71
2021/01/16 01:39:40;;;;;;;15.60;7.97;;;;;;;;;;5025020;28;20026;-71
2021/01/16 01:42:06;;;;;;;15.88;7.78;;;;;;;;;;5030959;28;20029;-70
2021/01/16 01:44:32;;;;;;;16.38;8.45;;;;;;;;;;5034675;28;20075;-71
2021/01/16 01:46:59;;;;;;;19.52;9.30;;;;;;;;;;5034876;28;20034;-70
2021/01/16 01:49:25;;;;;;;17.90;7.45;;;;;;;;;;5033923;28;20615;-70
2021/01/16 01:51:52;;;;;;;15.40;7.70;;;;;;;;;;5025967;28;20093;-71
2021/01/16 01:54:19;;;;;;;14.77;6.97;;;;;;;;;;5035282;28;20477;-70
2021/01/16 01:56:45;;;;;;;13.40;7.40;;;;;;;;;;5033994;28;20029;-70
2021/01/16 01:59:13;;;;;;;16.50;8.02;;;;;;;;;;5036349;28;20094;-70
2021/01/16 02:01:45;;;;;;;19.40;9.25;;;;;;;;;;5032297;28;21212;-70
2021/01/16 02:04:11;;;;;;;16.20;7.88;;;;;;;;;;5031952;28;20029;-70
2021/01/16 02:06:37;;;;;;;15.35;7.78;;;;;;;;;;5034470;28;20073;-70
2021/01/16 02:09:04;;;;;;;16.80;8.38;;;;;;;;;;5036855;28;20258;-70
2021/01/16 02:11:31;;;;;;;18.20;8.60;;;;;;;;;;5035585;28;20025;-70
2021/01/16 02:13:57;;;;;;;16.83;8.10;;;;;;;;;;5030304;28;20646;-70
2021/01/16 02:16:42;;;;;;;13.13;7.05;;;;;;;;;;5034907;28;20169;-70
2021/01/16 02:19:08;;;;;;;14.52;7.57;;;;;;;;;;5027643;28;20579;-70
2021/01/16 02:21:38;;;;;;;21.52;7.45;;;;;;;;;;5032791;28;20084;-70
2021/01/16 02:24:05;;;;;;;17.10;7.40;;;;;;;;;;5032791;28;20021;-70
2021/01/16 02:26:50;;;;;;;17.40;7.97;;;;;;;;;;5026007;28;20099;-70
2021/01/16 02:29:17;;;;;;;13.77;7.88;;;;;;;;;;5034431;28;20100;-70
2021/01/16 02:31:55;;;;;;;14.10;7.78;;;;;;;;;;5034378;28;20033;-70
2021/01/16 02:34:24;;;;;;;18.02;8.38;;;;;;;;;;5032405;28;20033;-70
2021/01/16 02:37:05;;;;;;;18.20;8.55;;;;;;;;;;5031583;28;20033;-70
2021/01/16 02:39:44;;;;;;;17.98;8.80;;;;;;;;;;5030579;28;20494;-70
2021/01/16 02:42:10;;;;;;;15.73;7.63;;;;;;;;;;5024865;28;20089;-70
2021/01/16 02:44:39;;;;;;;16.08;7.88;;;;;;;;;;5031972;28;20100;-70
2021/01/16 02:47:13;;;;;;;17.17;7.50;;;;;;;;;;5030450;28;20030;-70
2021/01/16 02:49:47;;;;;;;17.45;7.30;;;;;;;;;;5032449;28;20552;-70
2021/01/16 02:52:15;;;;;;;16.42;7.30;;;;;;;;;;5026683;28;20122;-70
2021/01/16 02:54:42;;;;;;;14.82;7.53;;;;;;;;;;5031588;28;20112;-70
2021/01/16 02:57:10;;;;;;;17.63;8.23;;;;;;;;;;5030130;28;20120;-70
2021/01/16 02:59:37;;;;;;;18.30;8.98;;;;;;;;;;5030514;28;20509;-70
2021/01/16 03:02:04;;;;;;;19.38;8.13;;;;;;;;;;5044209;28;20014;-70
2021/01/16 03:04:30;;;;;;;15.20;8.45;;;;;;;;;;5031364;28;20044;-70
2021/01/16 03:06:57;;;;;;;17.88;8.88;;;;;;;;;;5031579;28;20037;-70
2021/01/16 03:09:23;;;;;;;17.25;8.88;;;;;;;;;;5031048;28;20084;-70
2021/01/16 03:11:50;;;;;;;17.48;8.32;;;;;;;;;;5028987;28;20018;-70
2021/01/16 03:14:18;;;;;;;19.75;8.38;;;;;;;;;;5028180;28;20021;-70
2021/01/16 03:16:53;;;;;;;18.10;8.52;;;;;;;;;;5019466;28;20490;-70
2021/01/16 03:19:24;;;;;;;21.73;8.60;;;;;;;;;;5031072;28;20040;-70
2021/01/16 03:21:50;;;;;;;16.55;8.70;;;;;;;;;;5028956;28;20036;-70
2021/01/16 03:24:16;;;;;;;17.02;9.15;;;;;;;;;;5030629;28;20029;-70
2021/01/16 03:26:42;;;;;;;19.15;10.32;;;;;;;;;;5030482;28;20053;-70
2021/01/16 03:29:08;;;;;;;18.02;9.93;;;;;;;;;;5032286;28;20025;-70
2021/01/16 03:31:34;;;;;;;20.35;9.57;;;;;;;;;;5031138;28;20032;-69
2021/01/16 03:34:00;;;;;;;16.13;8.70;;;;;;;;;;5025795;28;20057;-70
2021/01/16 03:36:26;;;;;;;20.92;9.98;;;;;;;;;;5030912;28;20032;-70
2021/01/16 03:38:52;;;;;;;18.63;10.48;;;;;;;;;;5029999;28;20092;-70
2021/01/16 03:41:19;;;;;;;20.13;10.80;;;;;;;;;;5026795;28;20025;-70
2021/01/16 03:43:45;;;;;;;21.80;9.23;;;;;;;;;;5026615;28;20025;-70
2021/01/16 03:46:11;;;;;;;23.73;9.20;;;;;;;;;;5030219;28;22429;-70
2021/01/16 03:48:38;;;;;;;22.10;10.75;;;;;;;;;;5030282;28;20094;-70
2021/01/16 03:51:04;;;;;;;17.80;10.60;;;;;;;;;;5029708;28;20500;-70
2021/01/16 03:53:30;;;;;;;21.42;9.68;;;;;;;;;;5027859;28;20033;-70
2021/01/16 03:55:56;;;;;;;25.75;9.73;;;;;;;;;;5029709;28;20025;-70
2021/01/16 03:58:22;;;;;;;26.17;11.73;;;;;;;;;;5031179;28;20494;-70
2021/01/16 04:00:48;;;;;;;24.38;11.90;;;;;;;;;;5029512;28;20108;-70
2021/01/16 04:03:14;;;;;;;20.50;10.68;;;;;;;;;;5027264;28;20033;-70
2021/01/16 04:05:40;;;;;;;23.02;10.73;;;;;;;;;;5024461;28;20032;-70
2021/01/16 04:08:06;;;;;;;25.60;11.05;;;;;;;;;;5031055;28;20053;-70
2021/01/16 04:10:32;;;;;;;22.33;10.90;;;;;;;;;;5030122;28;20088;-70
2021/01/16 04:12:58;;;;;;;22.83;10.88;;;;;;;;;;5027336;28;20036;-70
2021/01/16 04:15:24;;;;;;;20.98;10.50;;;;;;;;;;5030235;28;20037;-69
2021/01/16 04:17:50;;;;;;;22.08;10.27;;;;;;;;;;5030100;28;20025;-69
2021/01/16 04:20:16;;;;;;;17.90;9.25;;;;;;;;;;5029780;28;20041;-70
2021/01/16 04:22:42;;;;;;;21.60;9.98;;;;;;;;;;5021935;28;20024;-70
2021/01/16 04:25:08;;;;;;;22.55;10.20;;;;;;;;;;5028765;28;20132;-70
2021/01/16 04:27:34;;;;;;;25.13;12.13;;;;;;;;;;5029073;28;20032;-70
2021/01/16 04:30:01;;;;;;;17.58;7.72;;;;;;;;;;5030104;28;20025;-69
2021/01/16 04:32:27;;;;;;;24.05;12.35;;;;;;;;;;5026617;28;20030;-70
2021/01/16 04:34:53;;;;;;;26.80;12.40;;;;;;;;;;5029048;28;20056;-70
2021/01/16 04:37:20;;;;;;;28.70;11.50;;;;;;;;;;5028286;28;20064;-70
2021/01/16 04:39:46;;;;;;;27.17;13.43;;;;;;;;;;5029351;28;20037;-70
2021/01/16 04:42:15;;;;;;;23.67;11.02;;;;;;;;;;5023428;28;21139;-70
2021/01/16 04:44:43;;;;;;;21.45;7.80;;;;;;;;;;5030056;28;20047;-70
2021/01/16 04:47:12;;;;;;;24.85;13.18;;;;;;;;;;5027813;28;20025;-70
2021/01/16 04:49:39;;;;;;;21.50;8.65;;;;;;;;;;5030164;28;20025;-69
2021/01/16 04:52:05;;;;;;;27.25;10.35;;;;;;;;;;5023402;28;20049;-70
2021/01/16 04:54:32;;;;;;;32.03;11.88;;;;;;;;;;5027451;28;20037;-70
2021/01/16 04:56:58;;;;;;;24.15;10.98;;;;;;;;;;5029031;28;20040;-70
2021/01/16 04:59:24;;;;;;;24.00;11.10;;;;;;;;;;5028895;28;20021;-69
2021/01/16 05:01:51;;;;;;;25.80;11.38;;;;;;;;;;5027229;28;20045;-69
2021/01/16 05:04:17;;;;;;;17.95;6.45;;;;;;;;;;5028006;28;20038;-70
2021/01/16 05:06:46;;;;;;;25.33;11.73;;;;;;;;;;5029495;28;20067;-69
2021/01/16 05:09:13;;;;;;;22.58;11.27;;;;;;;;;;5029212;28;20033;-69
2021/01/16 05:11:42;;;;;;;22.77;10.88;;;;;;;;;;5027439;28;20025;-69
2021/01/16 05:14:20;;;;;;;25.63;13.80;;;;;;;;;;5026822;28;20064;-70
2021/01/16 05:16:59;;;;;;;27.63;13.32;;;;;;;;;;5028864;28;20083;-70
2021/01/16 05:19:29;;;;;;;23.48;9.32;;;;;;;;;;5029336;28;20501;-69
2021/01/16 05:21:56;;;;;;;17.35;8.73;;;;;;;;;;5026490;28;20065;-69
2021/01/16 05:24:22;;;;;;;25.27;10.95;;;;;;;;;;5027752;28;20021;-70
2021/01/16 05:26:51;;;;;;;21.67;11.77;;;;;;;;;;5028997;28;20027;-69
2021/01/16 05:29:18;;;;;;;26.23;10.88;;;;;;;;;;5030089;28;20052;-69
2021/01/16 05:31:48;;;;;;;24.35;11.82;;;;;;;;;;5026643;28;20033;-69
2021/01/16 05:34:15;;;;;;;25.40;11.75;;;;;;;;;;5027078;28;20021;-70
2021/01/16 05:36:48;;;;;;;22.50;11.90;;;;;;;;;;5028269;28;20026;-70
2021/01/16 05:39:14;;;;;;;29.58;12.77;;;;;;;;;;5030050;28;20029;-69
2021/01/16 05:41:42;;;;;;;26.25;13.20;;;;;;;;;;5026872;28;20022;-69
2021/01/16 05:44:08;;;;;;;22.50;9.13;;;;;;;;;;5027467;28;20053;-69
2021/01/16 05:46:35;;;;;;;25.10;12.48;;;;;;;;;;5028563;28;20017;-70
2021/01/16 05:49:01;;;;;;;27.25;11.00;;;;;;;;;;5028814;28;20033;-70
2021/01/16 05:51:28;;;;;;;26.73;13.25;;;;;;;;;;5028296;28;20044;-69
2021/01/16 05:53:54;;;;;;;20.98;8.65;;;;;;;;;;5023243;28;20029;-69
2021/01/16 05:56:21;;;;;;;32.63;13.95;;;;;;;;;;5028184;28;20032;-69
2021/01/16 05:58:47;;;;;;;36.65;16.30;;;;;;;;;;5029203;28;20047;-69
2021/01/16 06:01:23;;;;;;;18.25;9.07;;;;;;;;;;5028756;28;20029;-70
2021/01/16 06:03:53;;;;;;;28.35;14.15;;;;;;;;;;5024752;28;20026;-69
2021/01/16 06:06:20;;;;;;;34.22;15.60;;;;;;;;;;5022504;28;20034;-69
2021/01/16 06:08:49;;;;;;;36.05;14.98;;;;;;;;;;5027489;28;20029;-69
2021/01/16 06:11:16;;;;;;;31.85;15.88;;;;;;;;;;5032697;28;20033;-70
2021/01/16 06:13:43;;;;;;;32.83;15.93;;;;;;;;;;5030839;28;20040;-69
2021/01/16 06:16:13;;;;;;;36.63;16.55;;;;;;;;;;5032173;28;20033;-69
2021/01/16 06:18:43;;;;;;;31.90;14.68;;;;;;;;;;5019344;28;20398;-69
2021/01/16 06:21:09;;;;;;;31.25;15.25;;;;;;;;;;5031747;28;20060;-69
2021/01/16 06:23:39;;;;;;;36.03;14.23;;;;;;;;;;5028080;28;20025;-69
2021/01/16 06:26:08;;;;;;;31.10;14.13;;;;;;;;;;5032487;28;20025;-69
2021/01/16 06:28:52;;;;;;;34.03;14.18;;;;;;;;;;5031957;28;20021;-70
2021/01/16 06:31:25;;;;;;;31.23;13.50;;;;;;;;;;5030742;28;20025;-69
2021/01/16 06:33:55;;;;;;;32.75;14.43;;;;;;;;;;5029328;28;20029;-69
2021/01/16 06:36:25;;;;;;;33.67;16.55;;;;;;;;;;5032101;28;20032;-69
2021/01/16 06:38:56;;;;;;;36.17;16.50;;;;;;;;;;5030452;28;20378;-69
2021/01/16 06:41:26;;;;;;;29.65;15.80;;;;;;;;;;5026108;28;20562;-69
2021/01/16 06:43:54;;;;;;;32.07;15.13;;;;;;;;;;5028334;28;20049;-69
2021/01/16 06:46:32;;;;;;;32.83;16.52;;;;;;;;;;5030075;28;20700;-69
2021/01/16 06:49:00;;;;;;;35.33;16.88;;;;;;;;;;5032347;28;20084;-69
2021/01/16 06:51:28;;;;;;;37.38;15.88;;;;;;;;;;5031451;28;20509;-69
2021/01/16 06:54:03;;;;;;;34.00;15.15;;;;;;;;;;5026010;28;20400;-69
2021/01/16 06:56:32;;;;;;;35.40;15.18;;;;;;;;;;5025657;28;20013;-69
2021/01/16 06:58:59;;;;;;;34.33;16.40;;;;;;;;;;5031016;28;20034;-69
2021/01/16 07:01:30;;;;;;;38.00;17.13;;;;;;;;;;5031197;28;20394;-69
2021/01/16 07:03:58;;;;;;;37.63;18.17;;;;;;;;;;5028397;28;20018;-69
2021/01/16 07:06:24;;;;;;;35.15;17.35;;;;;;;;;;5030749;28;20147;-69
2021/01/16 07:08:51;;;;;;;30.42;13.38;;;;;;;;;;5029411;28;20052;-69
2021/01/16 07:11:17;;;;;;;37.35;17.83;;;;;;;;;;5029809;28;20038;-68
2021/01/16 07:13:44;;;;;;;36.30;16.85;;;;;;;;;;5029189;28;20067;-70
2021/01/16 07:16:10;;;;;;;40.97;19.52;;;;;;;;;;5029334;28;20025;-69
2021/01/16 07:18:38;;;;;;;34.80;17.92;;;;;;;;;;5027967;28;20021;-69
2021/01/16 07:21:04;;;;;;;37.20;16.05;;;;;;;;;;5029119;28;20033;-69
2021/01/16 07:23:33;;;;;;;35.92;17.48;;;;;;;;;;5025562;28;20037;-69
2021/01/16 07:25:59;;;;;;;25.98;11.45;;;;;;;;;;5030196;28;20493;-68
2021/01/16 07:28:26;;;;;;;34.17;17.52;;;;;;;;;;5025798;28;20568;-68
2021/01/16 07:30:52;;;;;;;26.67;11.77;;;;;;;;;;5024551;28;20129;-69
2021/01/16 07:33:19;;;;;;;34.75;14.73;;;;;;;;;;5029115;28;20053;-69
2021/01/16 07:35:51;;;;;;;36.35;15.90;;;;;;;;;;5029514;28;20064;-68
2021/01/16 07:38:20;;;;;;;38.83;18.75;;;;;;;;;;5031228;28;20044;-69
2021/01/16 07:40:47;;;;;;;24.92;10.85;;;;;;;;;;5030377;28;20029;-69
2021/01/16 07:43:30;;;;;;;36.13;17.13;;;;;;;;;;5027269;28;20060;-69
2021/01/16 07:46:09;;;;;;;31.30;15.50;;;;;;;;;;5029380;28;20577;-68
2021/01/16 07:48:45;;;;;;;30.70;11.73;;;;;;;;;;5028097;28;20036;-69
2021/01/16 07:51:12;;;;;;;38.97;18.65;;;;;;;;;;5021897;28;20234;-69
2021/01/16 07:53:43;;;;;;;26.15;9.07;;;;;;;;;;5026686;28;20025;-69
2021/01/16 07:56:36;;;;;;;25.02;12.32;;;;;;;;;;5027043;28;20029;-69
2021/01/16 07:59:16;;;;;;;35.42;16.38;;;;;;;;;;5026041;28;20038;-69
2021/01/16 08:01:47;;;;;;;31.88;14.65;;;;;;;;;;5028601;28;20061;-69
2021/01/16 08:04:19;;;;;;;36.10;16.73;;;;;;;;;;5025661;28;20037;-68
2021/01/16 08:06:57;;;;;;;32.53;15.25;;;;;;;;;;5029601;28;20477;-68
2021/01/16 08:09:43;;;;;;;32.53;14.98;;;;;;;;;;5031458;28;20481;-68
2021/01/16 08:12:12;;;;;;;33.55;16.23;;;;;;;;;;5015154;28;20577;-69
2021/01/16 08:14:39;;;;;;;33.00;17.08;;;;;;;;;;5030653;28;20082;-68
2021/01/16 08:17:05;;;;;;;20.65;9.73;;;;;;;;;;5025351;28;20042;-69
2021/01/16 08:19:41;;;;;;;17.42;9.43;;;;;;;;;;5023791;28;20180;-68
2021/01/16 08:22:15;;;;;;;28.50;13.00;;;;;;;;;;5016523;28;20112;-69
2021/01/16 08:24:55;;;;;;;29.27;14.02;;;;;;;;;;5028781;28;20029;-68
2021/01/16 08:27:24;;;;;;;26.58;12.55;;;;;;;;;;5031034;28;20071;-68
2021/01/16 08:29:50;;;;;;;15.68;5.93;;;;;;;;;;5028725;28;20077;-69
2021/01/16 08:32:16;;;;;;;16.42;5.88;;;;;;;;;;5022440;28;20229;-68
2021/01/16 08:35:01;;;;;;;19.48;8.70;;;;;;;;;;5028147;28;20018;-68
2021/01/16 08:37:35;;;;;;;17.27;8.07;;;;;;;;;;5028434;28;20022;-68
2021/01/16 08:40:04;;;;;;;24.65;10.65;;;;;;;;;;5028116;28;20060;-67
2021/01/16 08:42:31;;;;;;;25.60;10.07;;;;;;;;;;5024930;28;20024;-68
2021/01/16 08:44:58;;;;;;;21.77;10.25;;;;;;;;;;5027559;28;20021;-67
2021/01/16 08:47:24;;;;;;;24.58;9.45;;;;;;;;;;5028287;28;20049;-68
2021/01/16 08:49:51;;;;;;;19.10;8.55;;;;;;;;;;5028876;28;20026;-68
2021/01/16 08:52:35;;;;;;;14.20;6.07;;;;;;;;;;5025359;28;20025;-67
2021/01/16 08:55:02;;;;;;;20.05;6.65;;;;;;;;;;5026654;28;20036;-67
2021/01/16 08:57:29;;;;;;;25.33;9.27;;;;;;;;;;5028436;28;20018;-67
2021/01/16 08:59:55;;;;;;;12.60;4.28;;;;;;;;;;5026694;28;20285;-68
2021/01/16 09:02:21;;;;;;;15.77;7.65;;;;;;;;;;5026020;28;20052;-67
2021/01/16 09:04:47;;;;;;;22.25;9.57;;;;;;;;;;5027158;28;20014;-68
2021/01/16 09:07:20;;;;;;;17.17;8.32;;;;;;;;;;5029906;28;20041;-68
2021/01/16 09:09:53;;;;;;;22.08;10.55;;;;;;;;;;5028646;28;20025;-68
2021/01/16 09:12:28;;;;;;;16.55;8.07;;;;;;;;;;5020494;28;20030;-67
2021/01/16 09:15:14;;;;;;;18.27;6.88;;;;;;;;;;5026343;28;20217;-67
2021/01/16 09:17:40;;;;;;;20.88;8.38;;;;;;;;;;5026086;28;20032;-67
2021/01/16 09:20:07;;;;;;;16.25;6.32;;;;;;;;;;5029564;28;20108;-68
2021/01/16 09:22:33;;;;;;;21.08;8.15;;;;;;;;;;5025175;28;20076;-68
2021/01/16 09:25:17;;;;;;;24.65;11.32;;;;;;;;;;5025065;28;20177;-68
2021/01/16 09:27:47;;;;;;;21.88;10.05;;;;;;;;;;5027325;28;20103;-68
2021/01/16 09:30:27;;;;;;;16.42;7.35;;;;;;;;;;5027336;28;20021;-68
2021/01/16 09:32:54;;;;;;;20.15;7.78;;;;;;;;;;5023887;28;20022;-68
2021/01/16 09:35:36;;;;;;;19.80;8.98;;;;;;;;;;5026165;28;20036;-68
2021/01/16 09:38:03;;;;;;;21.98;10.93;;;;;;;;;;5029478;28;20087;-68
2021/01/16 09:40:36;;;;;;;23.30;8.52;;;;;;;;;;5028321;28;20022;-68
2021/01/16 09:43:13;;;;;;;22.73;8.75;;;;;;;;;;5022195;28;20128;-66
2021/01/16 09:46:02;;;;;;;17.88;6.68;;;;;;;;;;5031481;28;20091;-67
2021/01/16 09:48:36;;;;;;;27.42;11.80;;;;;;;;;;5033184;28;20030;-68
2021/01/16 09:51:03;;;;;;;23.35;10.40;;;;;;;;;;5030473;28;20029;-67
2021/01/16 09:53:30;;;;;;;17.77;7.72;;;;;;;;;;5029210;28;20092;-66
2021/01/16 09:55:56;;;;;;;25.02;9.75;;;;;;;;;;5031980;28;20014;-67
2021/01/16 09:58:35;;;;;;;14.10;8.25;;;;;;;;;;5033173;28;20037;-68
2021/01/16 10:01:14;;;;;;;25.85;11.98;;;;;;;;;;5026056;28;20187;-68
2021/01/16 10:03:40;;;;;;;25.70;12.27;;;;;;;;;;5027402;28;20030;-68
2021/01/16 10:06:07;;;;;;;16.98;8.15;;;;;;;;;;5030103;28;20030;-67
2021/01/16 10:08:36;;;;;;;12.98;6.47;;;;;;;;;;5031683;28;20120;-68
2021/01/16 10:11:02;;;;;;;19.45;9.13;;;;;;;;;;5030907;28;20060;-68
2021/01/16 10:13:36;;;;;;;18.85;7.50;;;;;;;;;;5029034;28;20029;-68
2021/01/16 10:16:06;;;;;;;18.77;8.77;;;;;;;;;;5031606;28;20490;-67
2021/01/16 10:18:32;;;;;;;34.30;14.68;;;;;;;;;;5030402;28;20030;-67
2021/01/16 10:21:00;;;;;;;22.92;9.30;;;;;;;;;;5028343;28;20037;-66
2021/01/16 10:23:27;;;;;;;29.23;12.93;;;;;;;;;;5030536;28;20022;-67
2021/01/16 10:25:59;;;;;;;28.60;13.52;;;;;;;;;;5028511;28;20021;-68
2021/01/16 10:28:25;;;;;;;;;;;;;;;;;;5030498;28;20044;-66
2021/01/16 10:31:11;;;;;;;29.20;13.30;;;;;;;;;;5031125;28;20440;-67
2021/01/16 10:33:45;;;;;;;28.20;13.00;;;;;;;;;;5029713;28;20033;-68
2021/01/16 10:36:18;;;;;;;22.95;11.65;;;;;;;;;;5027296;28;20128;-66
2021/01/16 10:38:47;;;;;;;36.47;17.15;;;;;;;;;;5028364;28;20029;-67
2021/01/16 10:41:15;;;;;;;29.33;14.23;;;;;;;;;;5025744;28;20493;-67
2021/01/16 10:43:41;;;;;;;30.95;11.35;;;;;;;;;;5025461;28;20029;-67
2021/01/16 10:46:10;;;;;;;29.70;10.45;;;;;;;;;;5030753;28;20128;-68
2021/01/16 10:48:40;;;;;;;26.83;12.40;;;;;;;;;;5040599;28;20087;-67
2021/01/16 10:51:07;;;;;;;24.98;11.88;;;;;;;;;;5016777;28;20034;-66
2021/01/16 10:53:38;;;;;;;21.50;9.40;;;;;;;;;;5024067;28;20083;-67
2021/01/16 10:56:08;;;;;;;24.05;10.10;;;;;;;;;;5030420;28;20040;-66
2021/01/16 10:58:35;;;;;;;32.35;12.85;;;;;;;;;;5042225;28;20498;-66
2021/01/16 11:01:01;;;;;;;28.90;12.40;;;;;;;;;;5031823;28;20095;-67
2021/01/16 11:03:28;;;;;;;34.67;17.25;;;;;;;;;;5028919;28;20018;-67
2021/01/16 11:05:56;;;;;;;25.60;11.25;;;;;;;;;;5022248;28;20587;-67
2021/01/16 11:08:29;;;;;;;27.42;11.57;;;;;;;;;;5023892;28;20061;-67
2021/01/16 11:10:55;;;;;;;23.23;11.18;;;;;;;;;;5023322;28;20687;-66
2021/01/16 11:13:27;;;;;;;15.77;6.28;;;;;;;;;;5021641;28;20033;-67
2021/01/16 11:15:54;;;;;;;43.90;23.70;;;;;;;;;;5023572;28;20025;-66
2021/01/16 11:18:30;;;;;;;22.50;10.90;;;;;;;;;;5023675;28;20510;-67
2021/01/16 11:21:06;;;;;;;36.67;17.08;;;;;;;;;;5023047;28;20018;-67
2021/01/16 11:23:48;;;;;;;22.55;7.30;;;;;;;;;;5023101;28;20124;-67
2021/01/16 11:26:15;;;;;;;34.63;16.60;;;;;;;;;;5022916;28;20021;-68
2021/01/16 11:28:48;;;;;;;34.38;15.70;;;;;;;;;;5025734;28;20117;-68
2021/01/16 11:31:36;;;;;;;33.00;15.55;;;;;;;;;;5028696;28;20025;-70
2021/01/16 11:34:02;;;;;;;34.00;11.70;;;;;;;;;;5024501;28;20022;-67
2021/01/16 11:36:28;;;;;;;46.30;20.75;;;;;;;;;;5028452;28;20036;-68
2021/01/16 11:38:54;;;;;;;37.45;16.95;;;;;;;;;;5031112;28;20509;-68
2021/01/16 11:41:39;;;;;;;23.02;11.10;;;;;;;;;;5028471;28;20042;-67
2021/01/16 11:44:05;;;;;;;41.85;13.73;;;;;;;;;;5027689;28;20105;-68
2021/01/16 11:46:31;;;;;;;55.03;25.20;;;;;;;;;;5028297;28;20040;-69
2021/01/16 11:48:57;;;;;;;52.35;22.08;;;;;;;;;;5031840;28;20033;-67
2021/01/16 11:51:23;;;;;;;48.75;19.13;;;;;;;;;;5030180;28;20032;-67
2021/01/16 11:53:50;;;;;;;53.10;21.55;;;;;;;;;;5026673;28;20116;-67
2021/01/16 11:56:20;;;;;;;53.85;24.65;;;;;;;;;;5029159;28;20038;-68
2021/01/16 11:58:47;;;;;;;27.95;11.30;;;;;;;;;;5028038;28;20026;-68
2021/01/16 12:01:14;;;;;;;49.78;18.88;;;;;;;;;;5030786;28;20037;-68
2021/01/16 12:03:41;;;;;;;60.33;24.23;;;;;;;;;;5026949;28;20109;-67
2021/01/16 12:06:12;;;;;;;49.95;20.33;;;;;;;;;;5021530;28;20057;-68
2021/01/16 12:08:38;;;;;;;35.97;16.95;;;;;;;;;;5024938;28;20017;-67
2021/01/16 12:11:07;;;;;;;35.70;17.08;;;;;;;;;;5027690;28;20041;-68
2021/01/16 12:13:34;;;;;;;46.90;19.83;;;;;;;;;;5022935;28;20379;-71
2021/01/16 12:16:00;;;;;;;63.50;27.13;;;;;;;;;;5024388;28;20025;-68
2021/01/16 12:18:26;;;;;;;54.05;24.38;;;;;;;;;;5019158;28;20083;-70
2021/01/16 12:20:53;;;;;;;46.22;19.65;;;;;;;;;;5028761;28;20504;-70
2021/01/16 12:23:21;;;;;;;63.03;27.25;;;;;;;;;;5027593;28;20091;-69
2021/01/16 12:26:00;;;;;;;54.28;23.48;;;;;;;;;;5029891;28;20031;-69
2021/01/16 12:28:33;;;;;;;44.25;18.45;;;;;;;;;;5016254;28;20014;-69
2021/01/16 12:31:02;;;;;;;76.57;27.15;;;;;;;;;;5020311;28;20041;-69
2021/01/16 12:33:29;;;;;;;62.58;26.75;;;;;;;;;;5022425;28;20525;-69
2021/01/16 12:36:04;;;;;;;68.32;25.60;;;;;;;;;;5021555;28;20026;-70
2021/01/16 12:38:31;;;;;;;89.45;35.33;;;;;;;;;;5020763;28;20506;-69
2021/01/16 12:40:57;;;;;;;76.05;27.55;;;;;;;;;;5031108;28;20113;-69
2021/01/16 12:43:23;;;;;;;74.45;24.45;;;;;;;;;;5018115;28;20453;-70
2021/01/16 12:45:49;;;;;;;52.53;24.65;;;;;;;;;;5015819;28;20406;-69
2021/01/16 12:48:15;;;;;;;70.35;30.23;;;;;;;;;;5019844;28;20505;-69
2021/01/16 12:50:41;;;;;;;55.30;24.45;;;;;;;;;;5025352;28;20025;-69
2021/01/16 12:53:08;;;;;;;69.55;30.98;;;;;;;;;;5023501;28;20088;-71
2021/01/16 12:55:34;;;;;;;74.53;31.83;;;;;;;;;;5016518;28;20112;-71
2021/01/16 12:58:01;;;;;;;80.60;29.98;;;;;;;;;;5024724;28;20028;-69
2021/01/16 13:00:28;;;;;;;73.28;28.13;;;;;;;;;;5026518;28;20026;-69
2021/01/16 13:02:55;;;;;;;79.68;35.97;;;;;;;;;;5029661;28;20036;-69
2021/01/16 13:05:24;;;;;;;62.65;27.95;;;;;;;;;;5021391;28;20022;-71
2021/01/16 13:07:50;;;;;;;57.67;23.45;;;;;;;;;;5016838;28;20046;-69
2021/01/16 13:10:16;;;;;;;92.20;35.95;;;;;;;;;;5031532;28;20132;-69
2021/01/16 13:12:43;;;;;;;86.57;40.85;;;;;;;;;;5027425;28;20020;-69
2021/01/16 13:15:10;;;;;;;71.40;31.33;;;;;;;;;;5017951;28;20029;-70
2021/01/16 13:17:43;;;;;;;70.80;30.73;;;;;;;;;;5039299;28;20025;-69
2021/01/16 13:20:09;;;;;;;58.90;26.20;;;;;;;;;;5024974;28;20056;-68
2021/01/16 13:22:35;;;;;;;84.85;33.45;;;;;;;;;;5026251;28;20037;-69
2021/01/16 13:25:08;;;;;;;97.95;37.40;;;;;;;;;;5036013;28;20030;-69
2021/01/16 13:27:38;;;;;;;64.50;27.73;;;;;;;;;;5029915;28;20010;-69
2021/01/16 13:30:08;;;;;;;49.88;21.27;;;;;;;;;;5026585;28;20100;-69
2021/01/16 13:32:35;;;;;;;82.50;36.70;;;;;;;;;;5023974;28;20033;-70
2021/01/16 13:35:01;;;;;;;70.45;33.78;;;;;;;;;;5026394;28;20026;-70
2021/01/16 13:37:28;;;;;;;68.38;28.05;;;;;;;;;;5028604;28;20032;-69
2021/01/16 13:39:55;;;;;;;59.60;26.67;;;;;;;;;;5026168;28;20519;-71
2021/01/16 13:42:23;;;;;;;63.28;28.98;;;;;;;;;;5025346;28;20401;-70
2021/01/16 13:44:53;;;;;;;50.78;21.23;;;;;;;;;;5026312;28;20022;-71
2021/01/16 13:47:20;;;;;;;66.07;30.50;;;;;;;;;;5028964;28;20025;-69
2021/01/16 13:49:46;;;;;;;49.88;22.20;;;;;;;;;;5025846;28;20025;-70
2021/01/16 13:52:13;;;;;;;59.25;27.20;;;;;;;;;;5021997;28;20113;-70
2021/01/16 13:54:41;;;;;;;87.88;40.00;;;;;;;;;;5028483;28;20035;-70
2021/01/16 13:57:22;;;;;;;72.85;33.20;;;;;;;;;;5027557;28;20087;-69
2021/01/16 13:59:57;;;;;;;90.18;41.13;;;;;;;;;;5025647;28;20030;-69
2021/01/16 14:02:26;;;;;;;77.40;29.25;;;;;;;;;;5021094;28;20037;-70
2021/01/16 14:04:53;;;;;;;70.10;31.02;;;;;;;;;;5032767;28;20034;-70
2021/01/16 14:07:27;;;;;;;57.92;26.30;;;;;;;;;;5029985;28;20041;-70
2021/01/16 14:09:53;;;;;;;53.53;22.23;;;;;;;;;;5032912;28;20013;-70
2021/01/16 14:12:19;;;;;;;74.20;33.38;;;;;;;;;;5026168;28;20053;-69
2021/01/16 14:14:47;;;;;;;59.08;28.23;;;;;;;;;;5028189;28;20056;-69
2021/01/16 14:17:23;;;;;;;65.78;28.88;;;;;;;;;;5029224;28;20021;-70
2021/01/16 14:20:04;;;;;;;68.20;30.35;;;;;;;;;;5026034;28;20021;-71
2021/01/16 14:22:37;;;;;;;78.53;36.33;;;;;;;;;;5021490;28;20063;-73
2021/01/16 14:25:04;;;;;;;73.88;31.88;;;;;;;;;;5023860;28;20136;-70
2021/01/16 14:28:00;;;;;;;52.05;21.55;;;;;;;;;;5027450;28;20160;-70
2021/01/16 14:30:40;;;;;;;70.07;28.27;;;;;;;;;;5017763;28;20040;-70
2021/01/16 14:33:07;;;;;;;68.03;30.40;;;;;;;;;;5029661;28;20033;-71